createdAt,value
2019-04-10T00:00:08.777Z,7.54
2019-04-10T00:02:35.592Z,7.50
2019-04-10T00:05:05.169Z,7.46
2019-04-10T00:07:31.895Z,7.44
2019-04-10T00:09:59.279Z,7.44
2019-04-10T00:12:26.035Z,7.39
2019-04-10T00:14:52.798Z,7.41
2019-04-10T00:17:20.553Z,7.41
2019-04-10T00:19:47.744Z,7.41
2019-04-10T00:22:14.520Z,7.41
2019-04-10T00:24:41.317Z,7.38
2019-04-10T00:27:08.058Z,7.35
2019-04-10T00:29:34.808Z,7.32
2019-04-10T00:32:02.286Z,7.28
2019-04-10T00:34:29.678Z,7.25
2019-04-10T00:36:57.489Z,7.22
2019-04-10T00:39:24.478Z,7.20
2019-04-10T00:41:51.356Z,7.18
2019-04-10T00:44:19.403Z,7.18
2019-04-10T00:46:46.476Z,7.18
2019-04-10T00:49:13.532Z,7.19
2019-04-10T00:51:40.286Z,7.21
2019-04-10T00:54:07.769Z,7.21
2019-04-10T00:56:34.803Z,7.20
2019-04-10T00:59:02.078Z,7.12
2019-04-10T01:01:29.645Z,7.15
2019-04-10T01:03:56.689Z,7.12
2019-04-10T01:06:24.122Z,7.10
2019-04-10T01:08:51.096Z,7.11
2019-04-10T01:11:17.792Z,7.11
2019-04-10T01:14:05.354Z,7.09
2019-04-10T01:16:32.185Z,7.13
2019-04-10T01:18:59.501Z,7.13
2019-04-10T01:21:26.468Z,7.15
2019-04-10T01:23:53.352Z,7.18
2019-04-10T01:26:20.928Z,7.16
2019-04-10T01:28:49.093Z,7.18
2019-04-10T01:31:17.074Z,7.15
2019-04-10T01:33:45.900Z,7.16
2019-04-10T01:36:13.108Z,7.14
2019-04-10T01:38:39.953Z,7.15
2019-04-10T01:41:07.660Z,7.12
2019-04-10T01:43:35.111Z,7.12
2019-04-10T01:46:02.143Z,7.09
2019-04-10T01:48:29.888Z,7.05
2019-04-10T01:50:57.121Z,7.02
2019-04-10T01:53:23.906Z,7.01
2019-04-10T01:55:51.381Z,7.00
2019-04-10T01:58:19.100Z,7.00
2019-04-10T02:00:46.074Z,7.03
2019-04-10T02:03:13.876Z,7.04
2019-04-10T02:05:40.825Z,7.02
2019-04-10T02:08:10.363Z,7.02
2019-04-10T02:10:36.401Z,7.01
2019-04-10T02:13:03.249Z,7.02
2019-04-10T02:15:30.158Z,7.01
2019-04-10T02:17:57.099Z,7.00
2019-04-10T02:20:24.974Z,6.99
2019-04-10T02:22:51.952Z,6.97
2019-04-10T02:25:19.850Z,6.97
2019-04-10T02:27:46.870Z,6.94
2019-04-10T02:30:16.356Z,6.90
2019-04-10T02:32:47.317Z,6.90
2019-04-10T02:35:16.538Z,6.88
2019-04-10T02:37:41.578Z,6.86
2019-04-10T02:40:10.112Z,6.88
2019-04-10T02:42:38.741Z,6.92
2019-04-10T02:45:06.233Z,6.92
2019-04-10T02:47:34.592Z,6.93
2019-04-10T02:50:03.640Z,6.98
2019-04-10T02:52:30.791Z,6.95
2019-04-10T02:54:57.941Z,6.91
2019-04-10T02:57:25.478Z,6.88
2019-04-10T02:59:53.800Z,6.90
2019-04-10T03:02:22.057Z,6.87
2019-04-10T03:04:49.240Z,6.88
2019-04-10T03:07:17.612Z,6.86
2019-04-10T03:10:00.599Z,6.86
2019-04-10T03:12:14.568Z,6.81
2019-04-10T03:14:45.169Z,6.77
2019-04-10T03:17:10.469Z,6.75
2019-04-10T03:19:37.913Z,6.78
2019-04-10T03:22:07.269Z,6.73
2019-04-10T03:24:33.406Z,6.76
2019-04-10T03:27:00.131Z,6.74
2019-04-10T03:29:27.430Z,6.72
2019-04-10T03:31:56.483Z,6.71
2019-04-10T03:34:25.351Z,6.71
2019-04-10T03:36:51.735Z,6.70
2019-04-10T03:39:18.586Z,6.69
2019-04-10T03:41:45.479Z,6.70
2019-04-10T03:44:12.465Z,6.72
2019-04-10T03:46:40.173Z,6.71
2019-04-10T03:49:07.523Z,6.72
2019-04-10T03:51:34.314Z,6.71
2019-04-10T03:54:01.047Z,6.72
2019-04-10T03:56:27.835Z,6.71
2019-04-10T03:58:54.581Z,6.73
2019-04-10T04:01:22.886Z,6.70
2019-04-10T04:03:50.070Z,6.72
2019-04-10T04:06:17.848Z,6.69
2019-04-10T04:08:45.809Z,6.68
2019-04-10T04:11:13.461Z,6.72
2019-04-10T04:13:40.335Z,6.72
2019-04-10T04:16:07.214Z,6.73
2019-04-10T04:18:33.937Z,6.73
2019-04-10T04:21:01.526Z,6.68
2019-04-10T04:23:28.489Z,6.67
2019-04-10T04:25:55.241Z,6.63
2019-04-10T04:28:21.954Z,6.60
2019-04-10T04:30:51.718Z,6.60
2019-04-10T04:33:17.286Z,6.58
2019-04-10T04:35:44.167Z,6.54
2019-04-10T04:38:11.379Z,6.49
2019-04-10T04:40:38.175Z,6.47
2019-04-10T04:43:05.657Z,6.43
2019-04-10T04:45:33.437Z,6.42
2019-04-10T04:48:00.235Z,6.39
2019-04-10T04:50:27.105Z,6.37
2019-04-10T04:52:53.814Z,6.40
2019-04-10T04:55:20.622Z,6.42
2019-04-10T04:57:47.385Z,6.40
2019-04-10T05:00:15.254Z,6.35
2019-04-10T05:02:42.672Z,6.34
2019-04-10T05:05:09.658Z,6.32
2019-04-10T05:07:37.588Z,6.33
2019-04-10T05:10:09.089Z,6.31
2019-04-10T05:12:36.020Z,6.33
2019-04-10T05:15:04.924Z,6.33
2019-04-10T05:17:33.167Z,6.37
2019-04-10T05:20:00.848Z,6.39
2019-04-10T05:22:27.683Z,6.43
2019-04-10T05:24:54.462Z,6.50
2019-04-10T05:27:21.175Z,6.54
2019-04-10T05:29:47.987Z,6.50
2019-04-10T05:32:15.867Z,6.54
2019-04-10T05:34:43.352Z,6.54
2019-04-10T05:37:11.423Z,6.55
2019-04-10T05:39:43.383Z,6.56
2019-04-10T05:42:06.881Z,6.58
2019-04-10T05:44:34.051Z,6.61
2019-04-10T05:47:01.170Z,6.67
2019-04-10T05:49:28.914Z,6.71
2019-04-10T05:51:56.414Z,6.74
2019-04-10T05:54:24.595Z,6.78
2019-04-10T05:56:52.526Z,6.83
2019-04-10T05:59:19.606Z,6.84
2019-04-10T06:01:46.463Z,6.90
2019-04-10T06:04:13.369Z,6.95
2019-04-10T06:06:40.904Z,6.99
2019-04-10T06:09:08.776Z,7.02
2019-04-10T06:11:35.801Z,7.05
2019-04-10T06:14:03.220Z,7.10
2019-04-10T06:16:30.286Z,7.15
2019-04-10T06:18:57.605Z,7.19
2019-04-10T06:21:25.124Z,7.23
2019-04-10T06:23:51.921Z,7.29
2019-04-10T06:26:19.864Z,7.36
2019-04-10T06:28:46.932Z,7.41
2019-04-10T06:31:14.639Z,7.48
2019-04-10T06:33:42.487Z,7.47
2019-04-10T06:36:09.458Z,7.49
2019-04-10T06:38:37.259Z,7.51
2019-04-10T06:41:04.138Z,7.51
2019-04-10T06:43:30.935Z,7.53
2019-04-10T06:45:57.920Z,7.56
2019-04-10T06:48:25.909Z,7.60
2019-04-10T06:50:53.506Z,7.66
2019-04-10T06:53:20.585Z,7.70
2019-04-10T06:55:47.464Z,7.70
2019-04-10T06:58:14.193Z,7.72
2019-04-10T07:00:41.060Z,7.76
2019-04-10T07:03:08.580Z,7.81
2019-04-10T07:05:41.361Z,7.86
2019-04-10T07:08:12.455Z,7.87
2019-04-10T07:10:45.902Z,7.90
2019-04-10T07:13:04.278Z,7.93
2019-04-10T07:15:29.721Z,7.96
2019-04-10T07:17:56.528Z,7.98
2019-04-10T07:20:24.094Z,8.00
2019-04-10T07:22:51.272Z,7.98
2019-04-10T07:25:19.526Z,8.01
2019-04-10T07:27:46.353Z,8.02
2019-04-10T07:30:14.002Z,8.02
2019-04-10T07:32:45.615Z,8.07
2019-04-10T07:35:10.926Z,8.17
2019-04-10T07:37:38.297Z,8.19
2019-04-10T07:40:07.937Z,8.17
2019-04-10T07:42:38.454Z,8.19
2019-04-10T07:45:06.222Z,8.29
2019-04-10T07:47:32.955Z,8.39
2019-04-10T07:50:01.706Z,8.48
2019-04-10T07:52:29.476Z,8.53
2019-04-10T07:54:56.655Z,8.63
2019-04-10T07:57:24.510Z,8.72
2019-04-10T07:59:52.569Z,8.78
2019-04-10T08:02:19.459Z,8.80
2019-04-10T08:04:47.330Z,8.83
2019-04-10T08:07:24.906Z,8.82
2019-04-10T08:09:43.097Z,8.83
2019-04-10T08:12:11.342Z,8.89
2019-04-10T08:14:40.634Z,8.84
2019-04-10T08:17:07.967Z,8.88
2019-04-10T08:19:35.083Z,8.86
2019-04-10T08:22:03.401Z,8.85
2019-04-10T08:24:30.387Z,8.73
2019-04-10T08:26:57.177Z,8.60
2019-04-10T08:29:23.973Z,8.66
2019-04-10T08:31:50.822Z,8.68
2019-04-10T08:34:17.540Z,8.68
2019-04-10T08:36:44.278Z,8.75
2019-04-10T08:39:11.393Z,8.79
2019-04-10T08:41:38.077Z,8.85
2019-04-10T08:44:04.808Z,8.85
2019-04-10T08:46:31.669Z,8.88
2019-04-10T08:48:58.410Z,8.92
2019-04-10T08:51:25.677Z,8.99
2019-04-10T08:53:55.230Z,9.00
2019-04-10T08:56:22.540Z,9.01
2019-04-10T08:58:49.756Z,9.04
2019-04-10T09:01:17.426Z,9.06
2019-04-10T09:03:44.317Z,9.12
2019-04-10T09:06:11.339Z,9.18
2019-04-10T09:08:39.095Z,9.26
2019-04-10T09:11:07.021Z,9.28
2019-04-10T09:13:34.711Z,9.34
2019-04-10T09:16:02.523Z,9.38
2019-04-10T09:18:29.536Z,9.39
2019-04-10T09:20:57.294Z,9.37
2019-04-10T09:23:33.094Z,9.37
2019-04-10T09:25:52.666Z,9.33
2019-04-10T09:28:19.446Z,9.35
2019-04-10T09:30:46.184Z,9.31
2019-04-10T09:33:19.741Z,9.36
2019-04-10T09:35:41.516Z,9.37
2019-04-10T09:38:08.465Z,9.40
2019-04-10T09:40:36.250Z,9.40
2019-04-10T09:43:03.083Z,9.37
2019-04-10T09:45:30.652Z,9.31
2019-04-10T09:47:57.969Z,9.32
2019-04-10T09:50:26.117Z,9.36
2019-04-10T09:52:52.977Z,9.37
2019-04-10T09:55:20.120Z,9.38
2019-04-10T09:57:47.590Z,9.42
2019-04-10T10:00:15.622Z,9.41
2019-04-10T10:02:42.350Z,9.38
2019-04-10T10:05:10.429Z,9.27
2019-04-10T10:07:37.503Z,9.29
2019-04-10T10:10:06.697Z,9.29
2019-04-10T10:12:34.270Z,9.32
2019-04-10T10:15:02.415Z,9.36
2019-04-10T10:17:29.321Z,9.39
2019-04-10T10:19:56.047Z,9.39
2019-04-10T10:22:23.163Z,9.36
2019-04-10T10:24:50.959Z,9.34
2019-04-10T10:27:17.875Z,9.42
2019-04-10T10:29:44.702Z,9.50
2019-04-10T10:32:11.550Z,9.53
2019-04-10T10:34:38.720Z,9.62
2019-04-10T10:37:06.341Z,9.74
2019-04-10T10:39:33.093Z,9.84
2019-04-10T10:42:00.239Z,9.91
2019-04-10T10:44:27.091Z,10.02
2019-04-10T10:46:53.805Z,10.15
2019-04-10T10:49:20.693Z,10.25
2019-04-10T10:51:47.440Z,10.25
2019-04-10T10:54:14.210Z,10.25
2019-04-10T10:56:41.037Z,10.35
2019-04-10T10:59:07.782Z,10.40
2019-04-10T11:01:34.504Z,10.46
2019-04-10T11:04:01.286Z,10.53
2019-04-10T11:06:28.034Z,10.58
2019-04-10T11:08:55.544Z,10.59
2019-04-10T11:11:22.650Z,10.52
2019-04-10T11:13:50.723Z,10.53
2019-04-10T11:16:17.863Z,10.47
2019-04-10T11:18:44.776Z,10.48
2019-04-10T11:21:12.746Z,10.54
2019-04-10T11:23:39.902Z,10.57
2019-04-10T11:26:06.792Z,10.49
2019-04-10T11:28:33.799Z,10.38
2019-04-10T11:31:01.700Z,10.32
2019-04-10T11:33:28.529Z,10.25
2019-04-10T11:35:55.310Z,10.29
2019-04-10T11:38:22.171Z,10.39
2019-04-10T11:40:49.692Z,10.42
2019-04-10T11:43:16.753Z,10.40
2019-04-10T11:45:51.251Z,10.36
2019-04-10T11:48:13.493Z,10.38
2019-04-10T11:50:43.833Z,10.50
2019-04-10T11:53:10.460Z,10.64
2019-04-10T11:55:43.733Z,10.78
2019-04-10T11:58:07.831Z,10.84
2019-04-10T12:03:10.532Z,11.04
2019-04-10T12:05:41.152Z,11.15
2019-04-10T12:13:05.975Z,11.79
2019-04-10T12:15:32.787Z,12.08
2019-04-10T12:18:00.284Z,12.42
2019-04-10T12:20:27.398Z,12.89
2019-04-10T12:22:54.618Z,13.27
2019-04-10T12:25:22.869Z,13.49
2019-04-10T12:27:49.961Z,13.50
2019-04-10T12:30:19.376Z,13.53
2019-04-10T12:32:47.524Z,13.46
2019-04-10T12:35:15.124Z,13.28
2019-04-10T12:37:43.296Z,13.17
2019-04-10T12:40:10.497Z,13.05
2019-04-10T12:42:38.618Z,12.98
2019-04-10T12:45:06.648Z,12.80
2019-04-10T12:47:34.221Z,12.46
2019-04-10T12:50:01.481Z,12.28
2019-04-10T12:52:28.342Z,12.23
2019-04-10T12:54:55.298Z,12.14
2019-04-10T12:57:23.075Z,12.01
2019-04-10T12:59:50.025Z,11.99
2019-04-10T13:02:16.766Z,11.93
2019-04-10T13:04:44.836Z,11.96
2019-04-10T13:07:11.732Z,11.94
2019-04-10T13:09:38.515Z,11.96
2019-04-10T13:12:05.413Z,11.92
2019-04-10T13:14:32.787Z,11.96
2019-04-10T13:17:00.581Z,11.96
2019-04-10T13:19:27.526Z,11.96
2019-04-10T13:21:54.259Z,11.93
2019-04-10T13:24:21.564Z,11.85
2019-04-10T13:26:48.697Z,11.89
2019-04-10T13:29:16.220Z,11.93
2019-04-10T13:31:43.100Z,12.06
2019-04-10T13:34:10.909Z,12.15
2019-04-10T13:36:37.903Z,12.53
2019-04-10T13:39:06.559Z,12.72
2019-04-10T13:41:34.509Z,12.90
2019-04-10T13:44:02.364Z,13.33
2019-04-10T13:46:29.254Z,13.69
2019-04-10T13:48:55.992Z,13.84
2019-04-10T13:51:23.425Z,13.95
2019-04-10T13:53:50.229Z,13.92
2019-04-10T13:56:17.252Z,14.10
2019-04-10T13:58:44.589Z,14.39
2019-04-10T14:01:11.369Z,14.59
2019-04-10T14:03:40.078Z,14.91
2019-04-10T14:06:07.497Z,15.08
2019-04-10T14:08:56.031Z,15.12
2019-04-10T14:11:03.071Z,15.06
2019-04-10T14:13:29.800Z,14.91
2019-04-10T14:15:57.988Z,14.90
2019-04-10T14:18:24.917Z,14.81
2019-04-10T14:20:51.751Z,14.75
2019-04-10T14:23:18.473Z,14.66
2019-04-10T14:25:45.279Z,14.54
2019-04-10T14:28:13.048Z,14.39
2019-04-10T14:31:01.995Z,14.21
2019-04-10T14:33:28.807Z,14.09
2019-04-10T14:35:55.824Z,13.94
2019-04-10T14:38:23.264Z,13.89
2019-04-10T14:40:50.210Z,13.83
2019-04-10T14:43:17.019Z,13.80
2019-04-10T14:45:43.898Z,13.82
2019-04-10T14:48:10.654Z,13.80
2019-04-10T14:50:37.858Z,13.78
2019-04-10T14:53:05.563Z,13.80
2019-04-10T14:55:33.376Z,13.84
2019-04-10T14:58:01.256Z,13.92
2019-04-10T15:00:28.561Z,14.01
2019-04-10T15:02:55.949Z,14.23
2019-04-10T15:05:25.889Z,14.55
2019-04-10T15:07:53.301Z,14.86
2019-04-10T15:10:20.148Z,15.19
2019-04-10T15:12:47.930Z,15.56
2019-04-10T15:15:14.672Z,15.70
2019-04-10T15:17:42.215Z,15.62
2019-04-10T15:20:09.042Z,15.48
2019-04-10T15:22:35.872Z,15.35
2019-04-10T15:25:05.407Z,15.26
2019-04-10T15:27:33.290Z,15.24
2019-04-10T15:30:00.184Z,14.92
2019-04-10T15:32:26.919Z,14.75
2019-04-10T15:34:53.720Z,14.41
2019-04-10T15:37:20.768Z,14.03
2019-04-10T15:39:47.564Z,13.92
2019-04-10T15:42:14.320Z,13.78
2019-04-10T15:44:41.117Z,13.68
2019-04-10T15:47:16.157Z,13.63
2019-04-10T15:49:36.653Z,13.53
2019-04-10T15:52:03.776Z,13.57
2019-04-10T15:54:30.504Z,13.70
2019-04-10T15:56:58.283Z,13.68
2019-04-10T15:59:25.312Z,13.72
2019-04-10T16:01:52.096Z,13.71
2019-04-10T16:04:19.138Z,13.75
2019-04-10T16:06:45.957Z,13.85
2019-04-10T16:09:14.786Z,13.91
2019-04-10T16:11:42.116Z,13.81
2019-04-10T16:14:17.929Z,13.71
2019-04-10T16:16:37.398Z,13.61
2019-04-10T16:19:04.282Z,13.39
2019-04-10T16:21:31.881Z,13.31
2019-04-10T16:23:58.679Z,13.17
2019-04-10T16:26:25.505Z,13.02
2019-04-10T16:28:52.239Z,13.09
2019-04-10T16:31:19.389Z,13.06
2019-04-10T16:33:46.312Z,12.75
2019-04-10T16:36:13.011Z,12.70
2019-04-10T16:38:40.656Z,12.66
2019-04-10T16:41:08.215Z,12.54
2019-04-10T16:43:36.191Z,12.46
2019-04-10T16:46:03.032Z,12.42
2019-04-10T16:48:29.819Z,12.21
2019-04-10T16:50:57.177Z,12.11
2019-04-10T16:53:26.152Z,11.88
2019-04-10T16:55:53.388Z,11.80
2019-04-10T16:58:20.139Z,11.72
2019-04-10T17:00:47.503Z,11.79
2019-04-10T17:03:15.510Z,11.71
2019-04-10T17:05:42.463Z,11.69
2019-04-10T17:08:09.781Z,11.69
2019-04-10T17:10:36.691Z,11.54
2019-04-10T17:13:04.443Z,11.30
2019-04-10T17:15:32.173Z,11.25
2019-04-10T17:17:59.236Z,11.21
2019-04-10T17:20:26.626Z,11.21
2019-04-10T17:22:54.233Z,11.10
2019-04-10T17:25:22.121Z,11.12
2019-04-10T17:27:50.056Z,11.06
2019-04-10T17:30:17.792Z,11.06
2019-04-10T17:32:44.735Z,11.01
2019-04-10T17:35:11.807Z,10.98
2019-04-10T17:37:38.546Z,10.82
2019-04-10T17:40:09.034Z,10.74
2019-04-10T17:42:37.680Z,10.70
2019-04-10T17:45:07.711Z,10.64
2019-04-10T17:47:34.409Z,10.58
2019-04-10T17:50:01.325Z,10.51
2019-04-10T17:52:28.045Z,10.45
2019-04-10T17:54:55.444Z,10.35
2019-04-10T17:57:33.723Z,10.32
2019-04-10T17:59:51.182Z,10.30
2019-04-10T18:02:17.975Z,10.22
2019-04-10T18:04:44.821Z,10.20
2019-04-10T18:07:12.154Z,10.10
2019-04-10T18:09:39.024Z,10.12
2019-04-10T18:12:06.029Z,10.09
2019-04-10T18:14:36.153Z,10.08
2019-04-10T18:17:02.549Z,10.01
2019-04-10T18:19:30.249Z,9.96
2019-04-10T18:21:58.122Z,9.90
2019-04-10T18:24:26.207Z,9.88
2019-04-10T18:26:54.311Z,9.90
2019-04-10T18:29:21.594Z,9.82
2019-04-10T18:31:49.374Z,9.85
2019-04-10T18:34:17.284Z,9.86
2019-04-10T18:36:46.401Z,9.83
2019-04-10T18:39:14.019Z,9.83
2019-04-10T18:41:42.672Z,9.81
2019-04-10T18:44:09.424Z,9.76
2019-04-10T18:46:37.583Z,9.78
2019-04-10T18:49:05.327Z,9.72
2019-04-10T18:51:34.001Z,9.68
2019-04-10T18:54:01.724Z,9.67
2019-04-10T18:56:29.233Z,9.63
2019-04-10T18:58:56.299Z,9.64
2019-04-10T19:01:23.134Z,9.62
2019-04-10T19:03:56.104Z,9.60
2019-04-10T19:06:18.420Z,9.55
2019-04-10T19:08:46.211Z,9.52
2019-04-10T19:11:21.100Z,9.50
2019-04-10T19:13:42.473Z,9.46
2019-04-10T19:16:09.234Z,9.45
2019-04-10T19:18:35.966Z,9.42
2019-04-10T19:21:03.242Z,9.43
2019-04-10T19:23:30.798Z,9.46
2019-04-10T19:25:58.785Z,9.47
2019-04-10T19:28:33.364Z,9.48
2019-04-10T19:31:07.993Z,9.46
2019-04-10T19:33:24.015Z,9.48
2019-04-10T19:35:50.954Z,9.41
2019-04-10T19:38:18.897Z,9.41
2019-04-10T19:40:46.039Z,9.33
2019-04-10T19:43:13.767Z,9.40
2019-04-10T19:45:41.782Z,9.41
2019-04-10T19:48:09.012Z,9.40
2019-04-10T19:50:35.843Z,9.35
2019-04-10T19:53:02.672Z,9.35
2019-04-10T19:55:29.621Z,9.34
2019-04-10T19:57:57.406Z,9.32
2019-04-10T20:00:24.286Z,9.31
2019-04-10T20:02:51.136Z,9.28
2019-04-10T20:05:37.603Z,9.26
2019-04-10T20:08:05.198Z,9.24
2019-04-10T20:10:33.020Z,9.24
2019-04-10T20:12:59.913Z,9.23
2019-04-10T20:15:26.789Z,9.19
2019-04-10T20:17:54.547Z,9.15
2019-04-10T20:20:21.501Z,9.13
2019-04-10T20:22:48.341Z,9.13
2019-04-10T20:25:15.085Z,9.12
2019-04-10T20:27:42.491Z,9.10
2019-04-10T20:30:09.981Z,9.11
2019-04-10T20:32:39.831Z,9.14
2019-04-10T20:35:07.700Z,9.09
2019-04-10T20:37:34.725Z,9.03
2019-04-10T20:40:01.471Z,9.00
2019-04-10T20:42:28.188Z,9.01
2019-04-10T20:44:54.967Z,9.00
2019-04-10T20:47:22.608Z,9.02
2019-04-10T20:49:49.469Z,9.03
2019-04-10T20:52:16.208Z,9.06
2019-04-10T20:54:42.946Z,9.08
2019-04-10T20:57:10.848Z,9.08
2019-04-10T20:59:37.836Z,9.07
2019-04-10T21:02:04.570Z,9.08
2019-04-10T21:04:31.791Z,9.09
2019-04-10T21:06:58.650Z,9.09
2019-04-10T21:09:25.809Z,9.07
2019-04-10T21:12:03.199Z,8.99
2019-04-10T21:14:21.353Z,8.96
2019-04-10T21:16:48.075Z,8.93
2019-04-10T21:19:14.961Z,8.92
2019-04-10T21:21:41.716Z,8.94
2019-04-10T21:24:09.239Z,8.93
2019-04-10T21:26:36.707Z,8.84
2019-04-10T21:29:04.453Z,8.83
2019-04-10T21:31:31.805Z,8.81
2019-04-10T21:33:59.038Z,8.80
2019-04-10T21:36:26.263Z,8.76
2019-04-10T21:38:53.015Z,8.72
2019-04-10T21:41:20.035Z,8.70
2019-04-10T21:43:47.381Z,8.69
2019-04-10T21:46:14.402Z,8.67
2019-04-10T21:48:42.026Z,8.65
2019-04-10T21:51:08.844Z,8.67
2019-04-10T21:53:37.203Z,8.67
2019-04-10T21:56:04.231Z,8.64
2019-04-10T21:58:30.932Z,8.62
2019-04-10T22:00:57.718Z,8.60
2019-04-10T22:03:25.298Z,8.61
2019-04-10T22:05:53.104Z,8.57
2019-04-10T22:08:21.129Z,8.54
2019-04-10T22:10:48.273Z,8.52
2019-04-10T22:13:15.522Z,8.48
2019-04-10T22:15:42.561Z,8.48
2019-04-10T22:18:09.464Z,8.44
2019-04-10T22:20:36.259Z,8.42
2019-04-10T22:23:04.055Z,8.39
2019-04-10T22:25:31.913Z,8.37
2019-04-10T22:27:58.875Z,8.37
2019-04-10T22:30:25.595Z,8.37
2019-04-10T22:32:53.366Z,8.38
2019-04-10T22:35:21.554Z,8.36
2019-04-10T22:37:48.358Z,8.36
2019-04-10T22:40:15.340Z,8.32
2019-04-10T22:42:46.233Z,8.34
2019-04-10T22:45:26.163Z,8.31
2019-04-10T22:47:54.269Z,8.31
2019-04-10T22:50:22.299Z,8.28
2019-04-10T22:52:49.172Z,8.26
2019-04-10T22:55:15.944Z,8.27
2019-04-10T22:57:42.657Z,8.25
2019-04-10T23:00:11.730Z,8.25
2019-04-10T23:02:38.441Z,8.23
2019-04-10T23:05:05.274Z,8.22
2019-04-10T23:07:32.068Z,8.22
2019-04-10T23:09:58.807Z,8.26
2019-04-10T23:12:26.482Z,8.27
2019-04-10T23:14:53.413Z,8.26
2019-04-10T23:17:21.012Z,8.23
2019-04-10T23:19:47.800Z,8.26
2019-04-10T23:22:14.573Z,8.23
2019-04-10T23:24:41.271Z,8.21
2019-04-10T23:27:07.982Z,8.18
2019-04-10T23:29:35.989Z,8.17
2019-04-10T23:32:03.734Z,8.17
2019-04-10T23:34:30.578Z,8.15
2019-04-10T23:36:58.315Z,8.15
2019-04-10T23:39:25.194Z,8.17
2019-04-10T23:41:52.419Z,8.16
2019-04-10T23:44:19.157Z,8.14
2019-04-10T23:46:45.922Z,8.14
2019-04-10T23:49:13.050Z,8.15
2019-04-10T23:51:40.021Z,8.15
2019-04-10T23:54:06.921Z,8.15
2019-04-10T23:56:33.790Z,8.09
2019-04-10T23:59:00.521Z,8.01
